Time;durP1;ratioP1;P1;durP2;ratioP2;P2;SDS_P1;SDS_P2;PMS_P1;PMS_P2;Temp;Humidity;BMP_temperature;BMP_pressure;BME280_temperature;BME280_humidity;BME280_pressure;Samples;Min_cycle;Max_cycle;Signal;HPM_P1;HPM_P2
2023/07/17 00:01:35;;;;;;;6.55;2.45;;;;;;;;;;4996795;28;20105;-68
2023/07/17 00:04:00;;;;;;;6.72;2.60;;;;;;;;;;5003173;28;20080;-68
2023/07/17 00:06:26;;;;;;;6.63;2.55;;;;;;;;;;4999551;28;20138;-69
2023/07/17 00:08:51;;;;;;;6.80;2.70;;;;;;;;;;4999994;28;20021;-68
2023/07/17 00:11:16;;;;;;;7.20;2.55;;;;;;;;;;5002282;28;20066;-68
2023/07/17 00:13:41;;;;;;;6.90;2.95;;;;;;;;;;4997528;28;20026;-68
2023/07/17 00:16:07;;;;;;;6.70;2.80;;;;;;;;;;4998778;28;20042;-68
2023/07/17 00:18:34;;;;;;;8.18;2.90;;;;;;;;;;4999770;28;20018;-68
2023/07/17 00:21:00;;;;;;;5.00;2.65;;;;;;;;;;5000476;28;20382;-68
2023/07/17 00:23:25;;;;;;;7.38;3.17;;;;;;;;;;5001431;28;20033;-68
2023/07/17 00:25:50;;;;;;;9.30;2.63;;;;;;;;;;4985108;28;20025;-67
2023/07/17 00:28:15;;;;;;;6.78;2.80;;;;;;;;;;4998571;28;20037;-68
2023/07/17 00:30:42;;;;;;;7.45;2.70;;;;;;;;;;4995221;28;20042;-67
2023/07/17 00:33:08;;;;;;;7.03;2.85;;;;;;;;;;4995575;28;20098;-68
2023/07/17 00:35:34;;;;;;;8.15;2.85;;;;;;;;;;4999788;28;20026;-68
2023/07/17 00:37:59;;;;;;;7.22;3.13;;;;;;;;;;5012647;28;20041;-68
2023/07/17 00:40:24;;;;;;;6.80;2.95;;;;;;;;;;4988721;28;20045;-68
2023/07/17 00:42:49;;;;;;;8.73;3.00;;;;;;;;;;5003079;28;20069;-68
2023/07/17 00:45:15;;;;;;;9.00;2.70;;;;;;;;;;5003516;28;20026;-68
2023/07/17 00:47:41;;;;;;;6.63;2.72;;;;;;;;;;5001317;28;20041;-68
2023/07/17 00:50:07;;;;;;;6.07;2.75;;;;;;;;;;4996716;28;20032;-68
2023/07/17 00:52:33;;;;;;;8.82;2.50;;;;;;;;;;5000605;28;20029;-68
2023/07/17 00:54:58;;;;;;;6.47;2.50;;;;;;;;;;4999751;28;20026;-68
2023/07/17 00:57:25;;;;;;;7.43;2.92;;;;;;;;;;4997489;28;20033;-68
2023/07/17 00:59:50;;;;;;;7.05;3.20;;;;;;;;;;4996343;28;20104;-68
2023/07/17 01:02:16;;;;;;;8.90;3.17;;;;;;;;;;4999654;28;20060;-72
2023/07/17 01:04:43;;;;;;;6.55;2.70;;;;;;;;;;5017563;23;20065;-68
2023/07/17 01:07:08;;;;;;;6.15;2.63;;;;;;;;;;5011211;28;20453;-69
2023/07/17 01:09:35;;;;;;;5.97;2.78;;;;;;;;;;5012826;28;20010;-68
2023/07/17 01:12:00;;;;;;;9.50;2.88;;;;;;;;;;5009679;28;20026;-67
2023/07/17 01:14:25;;;;;;;6.90;2.92;;;;;;;;;;5010684;28;20021;-68
2023/07/17 01:16:51;;;;;;;5.85;2.35;;;;;;;;;;5010276;28;20036;-68
2023/07/17 01:19:16;;;;;;;9.18;2.88;;;;;;;;;;5005995;28;20033;-68
2023/07/17 01:21:50;;;;;;;7.13;2.88;;;;;;;;;;5010753;28;20026;-67
2023/07/17 01:24:15;;;;;;;6.95;2.70;;;;;;;;;;5012238;28;20017;-67
2023/07/17 01:26:41;;;;;;;6.20;2.65;;;;;;;;;;5005578;28;20061;-68
2023/07/17 01:29:06;;;;;;;8.98;2.70;;;;;;;;;;5012375;28;20389;-68
2023/07/17 01:31:31;;;;;;;6.10;2.40;;;;;;;;;;5009686;28;20033;-68
2023/07/17 01:33:56;;;;;;;6.93;2.97;;;;;;;;;;5011353;28;20030;-68
2023/07/17 01:36:22;;;;;;;6.38;2.63;;;;;;;;;;5012449;28;20024;-68
2023/07/17 01:38:47;;;;;;;6.60;2.75;;;;;;;;;;5011306;28;20470;-68
2023/07/17 01:41:13;;;;;;;6.65;2.88;;;;;;;;;;5011580;28;20049;-68
2023/07/17 01:43:38;;;;;;;5.30;2.25;;;;;;;;;;5009733;28;20445;-68
2023/07/17 01:46:03;;;;;;;6.97;2.17;;;;;;;;;;5007614;28;20490;-68
2023/07/17 01:48:29;;;;;;;7.18;2.47;;;;;;;;;;5008604;28;20492;-68
2023/07/17 01:50:54;;;;;;;6.88;2.50;;;;;;;;;;5010660;28;20054;-68
2023/07/17 01:53:20;;;;;;;6.03;2.53;;;;;;;;;;5003784;28;20049;-68
2023/07/17 01:55:46;;;;;;;8.07;2.80;;;;;;;;;;5009380;28;20026;-68
2023/07/17 01:58:11;;;;;;;7.03;2.83;;;;;;;;;;5012809;28;20018;-68
2023/07/17 02:00:36;;;;;;;7.72;2.50;;;;;;;;;;5006872;28;20033;-68
2023/07/17 02:03:02;;;;;;;7.00;2.65;;;;;;;;;;4992763;28;20057;-68
2023/07/17 02:05:27;;;;;;;8.05;2.85;;;;;;;;;;4995254;28;20042;-68
2023/07/17 02:07:52;;;;;;;6.25;2.70;;;;;;;;;;4992744;28;20015;-68
2023/07/17 02:10:17;;;;;;;5.90;2.53;;;;;;;;;;4993023;28;20101;-68
2023/07/17 02:12:43;;;;;;;6.25;2.33;;;;;;;;;;4996154;28;20391;-67
2023/07/17 02:15:12;;;;;;;5.80;2.67;;;;;;;;;;4992652;28;20481;-68
2023/07/17 02:17:37;;;;;;;8.25;2.60;;;;;;;;;;4993183;28;20193;-68
2023/07/17 02:20:08;;;;;;;6.88;2.50;;;;;;;;;;4992614;28;20109;-67
2023/07/17 02:22:33;;;;;;;6.03;2.70;;;;;;;;;;5004814;28;20036;-68
2023/07/17 02:24:59;;;;;;;8.90;3.22;;;;;;;;;;5010955;28;20021;-68
2023/07/17 02:27:24;;;;;;;9.57;2.85;;;;;;;;;;4998269;28;20467;-68
2023/07/17 02:29:50;;;;;;;8.80;2.53;;;;;;;;;;5009222;28;20451;-68
2023/07/17 02:32:15;;;;;;;6.78;2.80;;;;;;;;;;4999601;28;20045;-68
2023/07/17 02:34:40;;;;;;;7.57;2.67;;;;;;;;;;4998897;28;20033;-68
2023/07/17 02:37:10;;;;;;;7.20;2.75;;;;;;;;;;5003347;28;20096;-68
2023/07/17 02:39:35;;;;;;;7.07;2.67;;;;;;;;;;4999521;28;20038;-68
2023/07/17 02:42:00;;;;;;;6.00;2.47;;;;;;;;;;4996260;28;20430;-68
2023/07/17 02:44:25;;;;;;;6.47;2.53;;;;;;;;;;4999708;28;20495;-67
2023/07/17 02:46:50;;;;;;;6.32;2.60;;;;;;;;;;4999306;28;20026;-68
2023/07/17 02:49:16;;;;;;;8.23;2.72;;;;;;;;;;5008607;28;20022;-72
2023/07/17 02:51:41;;;;;;;7.65;2.70;;;;;;;;;;4996613;28;20418;-72
2023/07/17 02:54:07;;;;;;;7.20;2.60;;;;;;;;;;5004197;28;20029;-72
2023/07/17 02:56:32;;;;;;;8.07;2.85;;;;;;;;;;5001531;28;20018;-72
2023/07/17 02:58:57;;;;;;;8.40;2.60;;;;;;;;;;5004464;28;20014;-72
2023/07/17 03:01:22;;;;;;;6.10;2.63;;;;;;;;;;4995555;28;20026;-72
2023/07/17 03:03:47;;;;;;;7.03;2.70;;;;;;;;;;4998693;28;20478;-72
2023/07/17 03:06:13;;;;;;;8.32;2.60;;;;;;;;;;5006849;28;20378;-72
2023/07/17 03:08:38;;;;;;;5.85;2.80;;;;;;;;;;5005554;28;20713;-72
2023/07/17 03:11:04;;;;;;;7.30;2.67;;;;;;;;;;5003538;28;20367;-72
2023/07/17 03:13:29;;;;;;;7.45;2.70;;;;;;;;;;5000136;28;20023;-72
2023/07/17 03:15:55;;;;;;;6.93;2.60;;;;;;;;;;4995206;28;20014;-72
2023/07/17 03:18:21;;;;;;;6.18;2.13;;;;;;;;;;5000835;28;20072;-72
2023/07/17 03:20:46;;;;;;;7.18;2.42;;;;;;;;;;5006876;28;20030;-72
2023/07/17 03:23:11;;;;;;;7.90;2.60;;;;;;;;;;5001343;28;20037;-72
2023/07/17 03:25:36;;;;;;;8.18;3.00;;;;;;;;;;5003499;28;20018;-72
2023/07/17 03:28:02;;;;;;;6.40;2.88;;;;;;;;;;5001727;28;20061;-71
2023/07/17 03:30:27;;;;;;;9.20;2.50;;;;;;;;;;4996380;28;20049;-72
2023/07/17 03:32:52;;;;;;;10.77;2.85;;;;;;;;;;4995384;28;20029;-72
2023/07/17 03:35:18;;;;;;;7.60;2.80;;;;;;;;;;5009641;28;20100;-72
2023/07/17 03:37:43;;;;;;;9.90;3.20;;;;;;;;;;5002609;28;20111;-72
2023/07/17 03:40:10;;;;;;;7.55;2.83;;;;;;;;;;4994681;28;20474;-72
2023/07/17 03:42:35;;;;;;;6.57;2.70;;;;;;;;;;4995240;28;20351;-72
2023/07/17 03:45:00;;;;;;;7.28;2.63;;;;;;;;;;5003993;28;20065;-70
2023/07/17 03:47:25;;;;;;;10.38;2.90;;;;;;;;;;5005767;28;20081;-70
2023/07/17 03:49:51;;;;;;;7.32;2.63;;;;;;;;;;4996098;28;20038;-70
2023/07/17 03:52:16;;;;;;;7.80;2.70;;;;;;;;;;4994783;28;20022;-70
2023/07/17 03:54:41;;;;;;;9.95;2.72;;;;;;;;;;4996805;28;20415;-70
2023/07/17 03:57:06;;;;;;;8.25;2.88;;;;;;;;;;5012887;28;20490;-71
2023/07/17 03:59:45;;;;;;;8.48;3.08;;;;;;;;;;4997897;28;20523;-70
2023/07/17 04:02:11;;;;;;;9.68;3.28;;;;;;;;;;4994205;28;20026;-70
2023/07/17 04:04:36;;;;;;;7.93;2.78;;;;;;;;;;4994161;28;20104;-70
2023/07/17 04:07:01;;;;;;;7.63;2.97;;;;;;;;;;4995726;28;20069;-70
2023/07/17 04:09:26;;;;;;;6.22;2.90;;;;;;;;;;4994431;28;20034;-70
2023/07/17 04:11:51;;;;;;;6.93;2.85;;;;;;;;;;4998748;28;20029;-71
2023/07/17 04:14:17;;;;;;;6.93;2.55;;;;;;;;;;5012922;28;20057;-70
2023/07/17 04:16:42;;;;;;;6.28;2.92;;;;;;;;;;5002026;28;20088;-70
2023/07/17 04:19:07;;;;;;;8.45;3.30;;;;;;;;;;4994346;28;20053;-70
2023/07/17 04:21:32;;;;;;;6.22;2.85;;;;;;;;;;5001629;28;20376;-70
2023/07/17 04:23:58;;;;;;;9.95;3.25;;;;;;;;;;5003634;28;20036;-70
2023/07/17 04:26:24;;;;;;;6.38;2.60;;;;;;;;;;4994606;28;20026;-71
2023/07/17 04:28:49;;;;;;;6.72;2.80;;;;;;;;;;5008554;28;20829;-71
2023/07/17 04:31:14;;;;;;;7.78;2.78;;;;;;;;;;5002582;28;20026;-70
2023/07/17 04:33:39;;;;;;;8.88;2.78;;;;;;;;;;5000697;28;20394;-71
2023/07/17 04:36:05;;;;;;;6.72;3.00;;;;;;;;;;5000623;28;20049;-71
2023/07/17 04:38:30;;;;;;;7.28;2.55;;;;;;;;;;4996835;28;20108;-70
2023/07/17 04:40:56;;;;;;;6.75;2.72;;;;;;;;;;4999065;28;20037;-70
2023/07/17 04:43:21;;;;;;;7.30;2.80;;;;;;;;;;4997651;28;20038;-70
2023/07/17 04:45:46;;;;;;;7.10;2.80;;;;;;;;;;5011282;28;20025;-71
2023/07/17 04:48:11;;;;;;;6.57;2.33;;;;;;;;;;4999505;28;20056;-71
2023/07/17 04:50:37;;;;;;;8.13;2.70;;;;;;;;;;4997533;28;20030;-71
2023/07/17 04:53:02;;;;;;;8.65;2.80;;;;;;;;;;5002281;28;20501;-71
2023/07/17 04:55:27;;;;;;;7.75;2.78;;;;;;;;;;4997536;28;20379;-71
2023/07/17 04:57:52;;;;;;;9.57;2.92;;;;;;;;;;4995488;28;20486;-70
2023/07/17 05:00:18;;;;;;;7.65;2.92;;;;;;;;;;4993552;28;20470;-69
2023/07/17 05:02:43;;;;;;;8.77;2.90;;;;;;;;;;4993385;28;20414;-69
2023/07/17 05:05:09;;;;;;;6.63;2.40;;;;;;;;;;5003588;28;20072;-69
2023/07/17 05:07:34;;;;;;;7.50;2.55;;;;;;;;;;5010156;28;20056;-69
2023/07/17 05:09:59;;;;;;;9.00;3.08;;;;;;;;;;4995714;28;20450;-69
2023/07/17 05:12:25;;;;;;;8.40;2.80;;;;;;;;;;4994336;28;20030;-69
2023/07/17 05:14:50;;;;;;;7.10;2.50;;;;;;;;;;4993350;28;20022;-69
2023/07/17 05:17:15;;;;;;;4.70;1.95;;;;;;;;;;4994863;28;20014;-69
2023/07/17 05:19:40;;;;;;;7.55;2.67;;;;;;;;;;4992448;28;20101;-69
2023/07/17 05:22:06;;;;;;;8.18;2.75;;;;;;;;;;5000811;28;20034;-70
2023/07/17 05:24:32;;;;;;;6.32;2.58;;;;;;;;;;5005074;28;20034;-70
2023/07/17 05:26:57;;;;;;;8.55;2.58;;;;;;;;;;5012050;28;20030;-70
2023/07/17 05:29:22;;;;;;;7.07;2.60;;;;;;;;;;5010350;28;20059;-69
2023/07/17 05:31:48;;;;;;;6.60;2.60;;;;;;;;;;5017705;28;20021;-70
2023/07/17 05:34:13;;;;;;;6.35;2.40;;;;;;;;;;5001257;28;20022;-70
2023/07/17 05:36:38;;;;;;;5.70;2.33;;;;;;;;;;5002900;28;20076;-69
2023/07/17 05:39:04;;;;;;;5.47;2.22;;;;;;;;;;5002109;28;20029;-70
2023/07/17 05:41:29;;;;;;;5.35;2.13;;;;;;;;;;5010651;28;20389;-69
2023/07/17 05:43:54;;;;;;;6.15;2.40;;;;;;;;;;4996677;28;20025;-69
2023/07/17 05:46:20;;;;;;;6.03;2.05;;;;;;;;;;4993234;28;20066;-70
2023/07/17 05:48:45;;;;;;;5.57;2.30;;;;;;;;;;4997053;28;20505;-70
2023/07/17 05:51:11;;;;;;;7.78;2.00;;;;;;;;;;5002751;28;20038;-70
2023/07/17 05:53:36;;;;;;;4.28;1.85;;;;;;;;;;5021594;28;20110;-69
2023/07/17 05:56:01;;;;;;;6.38;2.00;;;;;;;;;;5033015;28;20504;-69
2023/07/17 05:58:26;;;;;;;5.32;1.92;;;;;;;;;;5020191;28;20032;-69
2023/07/17 06:00:51;;;;;;;4.95;1.80;;;;;;;;;;5013493;28;20129;-69
2023/07/17 06:03:17;;;;;;;5.03;1.90;;;;;;;;;;5013047;28;20080;-70
2023/07/17 06:05:43;;;;;;;4.50;1.63;;;;;;;;;;5017606;28;20565;-69
2023/07/17 06:08:08;;;;;;;5.53;1.88;;;;;;;;;;5017414;28;20470;-70
2023/07/17 06:10:34;;;;;;;5.90;2.00;;;;;;;;;;4998008;28;20491;-70
2023/07/17 06:12:59;;;;;;;5.18;1.90;;;;;;;;;;4997418;28;20026;-69
2023/07/17 06:15:24;;;;;;;5.80;1.90;;;;;;;;;;4997849;28;20023;-70
2023/07/17 06:17:50;;;;;;;4.95;1.90;;;;;;;;;;4997442;28;20049;-69
2023/07/17 06:20:15;;;;;;;5.90;2.30;;;;;;;;;;4997422;28;20018;-69
2023/07/17 06:22:40;;;;;;;6.75;2.22;;;;;;;;;;4997682;28;20097;-70
2023/07/17 06:25:06;;;;;;;5.53;1.95;;;;;;;;;;4997579;28;20018;-70
2023/07/17 06:27:32;;;;;;;6.85;2.00;;;;;;;;;;5019087;28;20037;-69
2023/07/17 06:29:57;;;;;;;4.93;1.92;;;;;;;;;;5017208;28;20389;-70
2023/07/17 06:32:22;;;;;;;6.88;1.90;;;;;;;;;;5016718;28;20072;-70
2023/07/17 06:34:47;;;;;;;4.35;1.80;;;;;;;;;;5017013;28;20069;-70
2023/07/17 06:37:13;;;;;;;5.10;2.00;;;;;;;;;;5016680;28;20051;-70
2023/07/17 06:39:38;;;;;;;6.13;2.25;;;;;;;;;;5016949;28;20032;-70
2023/07/17 06:42:04;;;;;;;6.93;1.95;;;;;;;;;;5016631;28;20054;-70
2023/07/17 06:44:29;;;;;;;4.40;1.90;;;;;;;;;;5018981;28;20025;-70
2023/07/17 06:46:54;;;;;;;6.20;2.08;;;;;;;;;;5036629;28;20104;-70
2023/07/17 06:49:19;;;;;;;4.72;1.80;;;;;;;;;;5036456;28;20052;-70
2023/07/17 06:51:44;;;;;;;5.88;1.95;;;;;;;;;;5036263;28;20021;-70
2023/07/17 06:54:10;;;;;;;6.43;2.08;;;;;;;;;;5022396;28;20022;-69
2023/07/17 06:56:35;;;;;;;6.50;2.05;;;;;;;;;;4997224;28;20018;-70
2023/07/17 06:59:00;;;;;;;5.22;1.92;;;;;;;;;;4997027;28;20052;-70
2023/07/17 07:01:25;;;;;;;5.65;1.75;;;;;;;;;;4996889;28;20072;-70
2023/07/17 07:03:51;;;;;;;4.18;1.77;;;;;;;;;;4996530;28;20519;-70
2023/07/17 07:06:16;;;;;;;5.18;1.90;;;;;;;;;;4996830;28;20030;-70
2023/07/17 07:08:42;;;;;;;4.90;1.70;;;;;;;;;;4996757;28;20432;-70
2023/07/17 07:11:07;;;;;;;5.13;1.77;;;;;;;;;;4996448;28;20027;-70
2023/07/17 07:13:33;;;;;;;5.78;2.03;;;;;;;;;;4996699;28;20015;-70
2023/07/17 07:15:58;;;;;;;7.68;2.10;;;;;;;;;;4995095;28;20471;-70
2023/07/17 07:18:23;;;;;;;5.15;1.83;;;;;;;;;;4996720;28;20031;-70
2023/07/17 07:20:51;;;;;;;7.28;2.00;;;;;;;;;;4996632;28;20042;-70
2023/07/17 07:23:16;;;;;;;5.38;1.90;;;;;;;;;;4996510;28;20046;-70
2023/07/17 07:25:42;;;;;;;5.28;2.05;;;;;;;;;;4996319;28;20498;-70
2023/07/17 07:28:07;;;;;;;5.68;1.83;;;;;;;;;;4996147;28;20363;-70
2023/07/17 07:30:32;;;;;;;5.07;2.00;;;;;;;;;;4996407;28;20054;-70
2023/07/17 07:32:58;;;;;;;4.68;1.80;;;;;;;;;;4996326;28;20022;-70
2023/07/17 07:35:23;;;;;;;4.45;1.42;;;;;;;;;;4996308;28;20069;-71
2023/07/17 07:37:48;;;;;;;5.70;1.77;;;;;;;;;;4996273;28;20025;-70
2023/07/17 07:40:14;;;;;;;5.80;1.75;;;;;;;;;;4996497;28;20367;-70
2023/07/17 07:42:40;;;;;;;6.25;1.98;;;;;;;;;;5029334;28;20049;-70
2023/07/17 07:45:06;;;;;;;5.20;2.10;;;;;;;;;;5023590;28;20436;-70
2023/07/17 07:47:32;;;;;;;5.78;1.85;;;;;;;;;;5017879;28;20018;-70
2023/07/17 07:49:57;;;;;;;4.32;1.90;;;;;;;;;;5015781;28;20029;-70
2023/07/17 07:52:22;;;;;;;4.75;1.90;;;;;;;;;;5014391;28;20014;-70
2023/07/17 07:54:47;;;;;;;4.22;1.83;;;;;;;;;;5002146;28;20019;-70
2023/07/17 07:57:13;;;;;;;6.97;2.10;;;;;;;;;;4995653;28;20025;-70
2023/07/17 07:59:38;;;;;;;5.60;2.05;;;;;;;;;;5015133;28;20527;-70
2023/07/17 08:02:03;;;;;;;4.57;1.90;;;;;;;;;;5008951;28;20065;-70
2023/07/17 08:04:28;;;;;;;6.35;2.25;;;;;;;;;;5014962;28;20058;-70
2023/07/17 08:06:54;;;;;;;7.82;2.03;;;;;;;;;;5005699;28;20037;-70
2023/07/17 08:09:19;;;;;;;6.18;1.80;;;;;;;;;;4995410;28;20057;-71
2023/07/17 08:11:45;;;;;;;5.78;2.10;;;;;;;;;;4995269;28;20095;-70
2023/07/17 08:14:12;;;;;;;6.43;2.22;;;;;;;;;;4995611;28;20046;-70
2023/07/17 08:16:37;;;;;;;6.15;2.00;;;;;;;;;;4995981;28;20022;-70
2023/07/17 08:19:02;;;;;;;5.70;2.13;;;;;;;;;;4994829;28;20407;-70
2023/07/17 08:21:27;;;;;;;9.70;1.98;;;;;;;;;;4995430;28;20463;-70
2023/07/17 08:23:53;;;;;;;10.00;2.60;;;;;;;;;;4994706;28;20371;-70
2023/07/17 08:26:18;;;;;;;7.05;2.30;;;;;;;;;;4998463;28;20072;-70
2023/07/17 08:28:43;;;;;;;5.05;2.03;;;;;;;;;;5026904;28;20025;-71
2023/07/17 08:31:08;;;;;;;5.78;2.08;;;;;;;;;;5034263;28;20039;-70
2023/07/17 08:33:34;;;;;;;5.07;2.08;;;;;;;;;;5034583;28;20013;-70
2023/07/17 08:35:59;;;;;;;8.40;1.70;;;;;;;;;;5034670;28;20049;-70
2023/07/17 08:38:24;;;;;;;7.72;2.30;;;;;;;;;;5034219;28;20505;-69
2023/07/17 08:40:51;;;;;;;8.20;1.90;;;;;;;;;;5034297;28;20432;-70
2023/07/17 08:43:17;;;;;;;5.55;2.10;;;;;;;;;;5028844;28;20228;-70
2023/07/17 08:45:42;;;;;;;6.50;2.03;;;;;;;;;;5014345;28;20123;-70
2023/07/17 08:48:08;;;;;;;6.20;2.00;;;;;;;;;;5014257;28;20026;-70
2023/07/17 08:50:33;;;;;;;4.65;2.10;;;;;;;;;;5007409;28;20025;-70
2023/07/17 08:52:58;;;;;;;6.70;2.17;;;;;;;;;;4995216;28;20402;-70
2023/07/17 08:55:24;;;;;;;6.90;2.15;;;;;;;;;;5006852;28;20306;-70
2023/07/17 08:57:52;;;;;;;6.18;2.00;;;;;;;;;;4994567;28;20033;-70
2023/07/17 09:00:19;;;;;;;6.65;2.20;;;;;;;;;;4994945;28;20389;-70
2023/07/17 09:02:44;;;;;;;7.63;1.95;;;;;;;;;;5001931;28;20030;-70
2023/07/17 09:05:09;;;;;;;6.22;2.00;;;;;;;;;;4994549;28;20046;-71
2023/07/17 09:07:35;;;;;;;6.05;2.05;;;;;;;;;;4997772;28;20058;-70
2023/07/17 09:10:12;;;;;;;4.57;2.03;;;;;;;;;;5013937;28;20037;-69
2023/07/17 09:12:40;;;;;;;5.40;1.85;;;;;;;;;;5008520;28;20026;-70
2023/07/17 09:15:05;;;;;;;5.57;2.10;;;;;;;;;;5013224;28;20022;-71
2023/07/17 09:17:32;;;;;;;6.95;2.20;;;;;;;;;;5013703;28;20025;-70
2023/07/17 09:20:10;;;;;;;6.00;2.00;;;;;;;;;;5013090;28;20028;-70
2023/07/17 09:22:35;;;;;;;6.28;2.03;;;;;;;;;;5007973;28;20482;-69
2023/07/17 09:25:00;;;;;;;4.78;2.03;;;;;;;;;;4993756;28;20026;-71
2023/07/17 09:27:25;;;;;;;4.38;1.58;;;;;;;;;;4994319;28;20037;-70
2023/07/17 09:29:51;;;;;;;4.40;1.60;;;;;;;;;;5007255;28;20378;-70
2023/07/17 09:32:18;;;;;;;5.43;1.83;;;;;;;;;;5013545;28;20386;-70
2023/07/17 09:34:48;;;;;;;5.57;2.00;;;;;;;;;;5005432;28;20560;-71
2023/07/17 09:37:14;;;;;;;6.43;2.13;;;;;;;;;;5000494;28;20371;-71
2023/07/17 09:39:39;;;;;;;8.68;2.38;;;;;;;;;;5010912;28;20017;-71
2023/07/17 09:42:04;;;;;;;5.97;1.98;;;;;;;;;;5013869;28;20026;-70
2023/07/17 09:44:30;;;;;;;4.70;1.80;;;;;;;;;;5002573;28;20094;-70
2023/07/17 09:46:56;;;;;;;4.75;1.88;;;;;;;;;;4996775;28;20444;-70
2023/07/17 09:49:21;;;;;;;6.72;2.05;;;;;;;;;;4994083;28;20026;-71
2023/07/17 09:51:47;;;;;;;7.68;2.45;;;;;;;;;;5000543;28;20382;-71
2023/07/17 09:54:12;;;;;;;6.28;2.15;;;;;;;;;;5005645;28;20022;-70
2023/07/17 09:56:40;;;;;;;6.60;2.10;;;;;;;;;;4996128;28;20064;-70
2023/07/17 09:59:17;;;;;;;4.75;2.03;;;;;;;;;;4996092;28;20383;-70
2023/07/17 10:01:45;;;;;;;6.90;2.08;;;;;;;;;;5000447;28;20510;-70
2023/07/17 10:04:10;;;;;;;6.90;2.50;;;;;;;;;;5013101;28;20133;-70
2023/07/17 10:06:36;;;;;;;7.50;2.13;;;;;;;;;;5011949;28;20447;-70
2023/07/17 10:09:02;;;;;;;6.03;1.85;;;;;;;;;;5013246;28;20474;-70
2023/07/17 10:11:27;;;;;;;6.20;2.03;;;;;;;;;;5013213;28;20034;-70
2023/07/17 10:13:54;;;;;;;7.80;2.38;;;;;;;;;;5013113;28;20068;-70
2023/07/17 10:16:19;;;;;;;7.85;2.20;;;;;;;;;;5001381;28;20030;-70
2023/07/17 10:18:46;;;;;;;5.80;1.70;;;;;;;;;;5000900;28;20364;-70
2023/07/17 10:21:13;;;;;;;6.55;2.40;;;;;;;;;;5012923;28;20089;-70
2023/07/17 10:23:41;;;;;;;6.85;2.10;;;;;;;;;;5012933;28;20014;-70
2023/07/17 10:26:11;;;;;;;5.03;1.92;;;;;;;;;;4999253;28;20023;-70
2023/07/17 10:28:37;;;;;;;6.60;2.35;;;;;;;;;;4993263;28;20574;-70
2023/07/17 10:31:17;;;;;;;7.30;2.03;;;;;;;;;;5006937;28;20490;-70
2023/07/17 10:33:45;;;;;;;7.37;2.03;;;;;;;;;;4998216;28;20018;-70
2023/07/17 10:36:12;;;;;;;5.80;2.05;;;;;;;;;;5002435;28;20410;-70
2023/07/17 10:38:37;;;;;;;5.35;2.10;;;;;;;;;;5006193;28;20053;-70
2023/07/17 10:41:05;;;;;;;7.68;2.33;;;;;;;;;;5025356;28;20064;-70
2023/07/17 10:43:34;;;;;;;5.35;1.80;;;;;;;;;;5033128;28;20075;-70
2023/07/17 10:46:03;;;;;;;6.38;2.10;;;;;;;;;;5032626;28;20028;-70
2023/07/17 10:48:33;;;;;;;5.95;2.20;;;;;;;;;;5032873;28;20354;-71
2023/07/17 10:50:58;;;;;;;5.25;2.10;;;;;;;;;;5035305;28;20105;-70
2023/07/17 10:53:23;;;;;;;5.78;2.17;;;;;;;;;;5024913;28;20101;-71
2023/07/17 10:55:49;;;;;;;6.18;1.98;;;;;;;;;;4997150;28;20022;-70
2023/07/17 10:58:16;;;;;;;4.05;1.67;;;;;;;;;;5009902;28;20426;-70
2023/07/17 11:00:42;;;;;;;5.85;2.13;;;;;;;;;;5016421;28;20022;-70
2023/07/17 11:03:08;;;;;;;3.90;1.45;;;;;;;;;;5016169;28;20026;-71
2023/07/17 11:05:40;;;;;;;4.65;1.85;;;;;;;;;;5011840;28;20402;-71
2023/07/17 11:08:08;;;;;;;5.57;2.22;;;;;;;;;;5014926;28;20097;-71
2023/07/17 11:10:38;;;;;;;4.93;2.20;;;;;;;;;;4998434;28;20026;-71
2023/07/17 11:13:04;;;;;;;6.93;2.25;;;;;;;;;;5001085;28;20022;-71
2023/07/17 11:15:32;;;;;;;5.63;2.15;;;;;;;;;;5002079;28;20041;-71
2023/07/17 11:18:01;;;;;;;7.03;2.30;;;;;;;;;;5001535;28;20057;-71
2023/07/17 11:20:27;;;;;;;6.68;2.55;;;;;;;;;;5016296;28;20370;-71
2023/07/17 11:22:52;;;;;;;5.80;2.17;;;;;;;;;;5008511;28;20489;-71
2023/07/17 11:25:19;;;;;;;6.75;2.60;;;;;;;;;;5004183;28;20026;-71
2023/07/17 11:27:44;;;;;;;6.95;2.63;;;;;;;;;;5008052;28;20552;-71
2023/07/17 11:30:14;;;;;;;5.70;2.30;;;;;;;;;;5006578;28;20054;-71
2023/07/17 11:32:40;;;;;;;7.10;2.40;;;;;;;;;;5006533;28;20040;-71
2023/07/17 11:35:06;;;;;;;5.53;2.15;;;;;;;;;;5016190;28;20517;-71
2023/07/17 11:37:34;;;;;;;5.82;2.00;;;;;;;;;;5015950;28;20471;-71
2023/07/17 11:40:02;;;;;;;7.00;2.50;;;;;;;;;;5014253;28;20032;-71
2023/07/17 11:42:27;;;;;;;5.25;2.03;;;;;;;;;;5003868;28;20030;-71
2023/07/17 11:44:57;;;;;;;6.63;1.88;;;;;;;;;;5003573;28;20379;-71
2023/07/17 11:47:23;;;;;;;5.03;2.03;;;;;;;;;;5032591;28;20422;-71
2023/07/17 11:49:52;;;;;;;7.53;2.33;;;;;;;;;;5010042;28;20037;-71
2023/07/17 11:52:18;;;;;;;6.25;2.17;;;;;;;;;;5010031;28;20033;-71
2023/07/17 11:54:44;;;;;;;5.10;2.10;;;;;;;;;;4994998;28;20023;-71
2023/07/17 11:57:09;;;;;;;3.10;1.10;;;;;;;;;;5000363;28;20108;-70
2023/07/17 11:59:34;;;;;;;2.05;0.90;;;;;;;;;;5012317;28;20022;-71
2023/07/17 12:02:00;;;;;;;1.50;0.70;;;;;;;;;;5014415;28;20018;-71
2023/07/17 12:04:26;;;;;;;2.90;0.88;;;;;;;;;;5015021;28;20045;-71
2023/07/17 12:06:53;;;;;;;2.50;0.90;;;;;;;;;;5015419;28;20478;-71
2023/07/17 12:09:19;;;;;;;2.10;0.90;;;;;;;;;;5015202;28;20025;-71
2023/07/17 12:11:44;;;;;;;2.60;1.00;;;;;;;;;;5015126;28;20036;-71
2023/07/17 12:14:09;;;;;;;3.25;0.90;;;;;;;;;;5015193;28;20060;-71
2023/07/17 12:16:35;;;;;;;3.97;1.00;;;;;;;;;;5014813;28;20390;-71
2023/07/17 12:19:00;;;;;;;3.95;1.30;;;;;;;;;;5014823;28;20022;-71
2023/07/17 12:21:25;;;;;;;4.13;1.08;;;;;;;;;;5014755;28;20101;-71
2023/07/17 12:23:50;;;;;;;2.65;1.13;;;;;;;;;;5015093;28;20026;-71
2023/07/17 12:26:17;;;;;;;3.22;1.25;;;;;;;;;;4998620;28;20453;-71
2023/07/17 12:28:42;;;;;;;3.15;1.35;;;;;;;;;;4995261;28;20088;-71
2023/07/17 12:31:07;;;;;;;5.07;1.30;;;;;;;;;;4994955;28;20022;-71
2023/07/17 12:33:32;;;;;;;2.88;1.10;;;;;;;;;;5020874;28;20035;-71
2023/07/17 12:35:58;;;;;;;4.95;1.30;;;;;;;;;;5034346;28;20028;-71
2023/07/17 12:38:23;;;;;;;4.47;1.35;;;;;;;;;;5027418;28;20025;-71
2023/07/17 12:40:49;;;;;;;8.32;2.33;;;;;;;;;;5004787;28;20080;-70
2023/07/17 12:43:15;;;;;;;5.78;2.28;;;;;;;;;;5014357;28;20018;-71
2023/07/17 12:45:40;;;;;;;5.05;1.98;;;;;;;;;;5014537;28;20022;-71
2023/07/17 12:48:06;;;;;;;6.20;2.58;;;;;;;;;;5014441;28;20024;-71
2023/07/17 12:50:32;;;;;;;5.57;2.22;;;;;;;;;;5014535;28;20485;-71
2023/07/17 12:52:57;;;;;;;5.45;2.35;;;;;;;;;;5014037;28;20034;-71
2023/07/17 12:55:22;;;;;;;8.05;2.95;;;;;;;;;;4999872;28;20015;-72
2023/07/17 12:57:47;;;;;;;8.15;2.97;;;;;;;;;;5010378;28;20028;-72
2023/07/17 13:00:13;;;;;;;6.18;2.70;;;;;;;;;;5011796;28;20025;-71
2023/07/17 13:02:38;;;;;;;6.35;2.50;;;;;;;;;;5003003;28;20034;-71
2023/07/17 13:05:03;;;;;;;6.28;2.83;;;;;;;;;;5013093;28;20135;-71
2023/07/17 13:07:29;;;;;;;8.05;2.80;;;;;;;;;;5005974;28;20101;-71
2023/07/17 13:09:54;;;;;;;5.63;2.47;;;;;;;;;;5013382;28;20025;-71
2023/07/17 13:12:20;;;;;;;7.22;3.20;;;;;;;;;;5013491;28;20458;-71
2023/07/17 13:14:45;;;;;;;6.53;2.58;;;;;;;;;;5009287;28;20022;-71
2023/07/17 13:17:11;;;;;;;8.10;2.70;;;;;;;;;;5002073;28;20388;-67
2023/07/17 13:19:36;;;;;;;8.93;2.72;;;;;;;;;;5001233;28;20073;-67
2023/07/17 13:22:02;;;;;;;6.75;2.35;;;;;;;;;;5005220;28;20027;-66
2023/07/17 13:24:28;;;;;;;5.63;2.65;;;;;;;;;;4997691;28;20101;-67
2023/07/17 13:26:53;;;;;;;6.35;2.67;;;;;;;;;;4993944;28;20064;-67
2023/07/17 13:29:18;;;;;;;5.85;2.70;;;;;;;;;;5007375;28;20018;-67
2023/07/17 13:31:43;;;;;;;5.57;2.33;;;;;;;;;;5013433;28;20125;-66
2023/07/17 13:34:09;;;;;;;5.72;1.95;;;;;;;;;;5013656;28;20037;-67
2023/07/17 13:36:34;;;;;;;4.22;1.45;;;;;;;;;;5013600;28;20076;-67
2023/07/17 13:38:59;;;;;;;3.55;1.60;;;;;;;;;;5016034;28;20018;-67
2023/07/17 13:41:41;;;;;;;4.88;1.88;;;;;;;;;;5008996;28;20037;-67
2023/07/17 13:44:06;;;;;;;4.53;1.70;;;;;;;;;;4994029;28;20026;-66
2023/07/17 13:46:32;;;;;;;5.78;2.25;;;;;;;;;;4993797;28;20050;-66
2023/07/17 13:48:57;;;;;;;6.13;2.55;;;;;;;;;;5007983;28;20048;-66
2023/07/17 13:51:22;;;;;;;6.97;2.25;;;;;;;;;;5016077;28;20030;-66
2023/07/17 13:53:48;;;;;;;5.82;2.20;;;;;;;;;;4993901;28;20045;-66
2023/07/17 13:56:13;;;;;;;5.97;2.40;;;;;;;;;;4993375;28;20093;-66
2023/07/17 13:58:38;;;;;;;6.60;2.40;;;;;;;;;;4994418;28;20026;-66
2023/07/17 14:01:03;;;;;;;7.40;2.63;;;;;;;;;;4993867;28;20093;-66
2023/07/17 14:03:29;;;;;;;6.10;2.45;;;;;;;;;;4996347;28;20025;-66
2023/07/17 14:05:54;;;;;;;5.95;2.67;;;;;;;;;;4999562;28;20052;-66
2023/07/17 14:08:19;;;;;;;6.43;2.70;;;;;;;;;;4993620;28;20386;-66
2023/07/17 14:10:44;;;;;;;5.85;2.20;;;;;;;;;;4998657;28;20457;-66
2023/07/17 14:13:10;;;;;;;5.82;2.25;;;;;;;;;;5005458;28;20536;-66
2023/07/17 14:15:35;;;;;;;4.30;1.90;;;;;;;;;;5008124;28;20019;-66
2023/07/17 14:18:00;;;;;;;5.90;2.17;;;;;;;;;;5011342;28;20433;-66
2023/07/17 14:20:25;;;;;;;5.57;1.95;;;;;;;;;;4998098;28;20037;-66
2023/07/17 14:22:50;;;;;;;5.30;2.20;;;;;;;;;;5010047;28;20030;-66
2023/07/17 14:25:16;;;;;;;6.10;2.60;;;;;;;;;;5014801;28;20021;-66
2023/07/17 14:27:41;;;;;;;4.82;2.13;;;;;;;;;;5011687;28;20105;-66
2023/07/17 14:30:06;;;;;;;5.22;2.10;;;;;;;;;;5001092;28;20026;-66
2023/07/17 14:32:32;;;;;;;8.00;2.40;;;;;;;;;;5005749;28;20032;-66
2023/07/17 14:34:57;;;;;;;6.95;2.40;;;;;;;;;;5001359;28;20117;-66